createdAt,value
2019-04-03T00:01:08.485Z,8.70
2019-04-03T00:03:37.765Z,8.60
2019-04-03T00:06:07.009Z,8.60
2019-04-03T00:08:36.660Z,8.60
2019-04-03T00:11:08.519Z,8.50
2019-04-03T00:13:37.509Z,8.50
2019-04-03T00:16:06.805Z,9.10
2019-04-03T00:18:36.149Z,8.40
2019-04-03T00:21:05.425Z,8.40
2019-04-03T00:23:34.689Z,8.40
2019-04-03T00:26:04.037Z,8.40
2019-04-03T00:28:33.297Z,8.40
2019-04-03T00:31:03.063Z,8.40
2019-04-03T00:33:32.333Z,8.30
2019-04-03T00:36:01.588Z,8.40
2019-04-03T00:38:30.854Z,8.30
2019-04-03T00:41:00.216Z,8.30
2019-04-03T00:43:29.689Z,8.20
2019-04-03T00:45:58.961Z,8.20
2019-04-03T00:48:28.257Z,8.20
2019-04-03T00:50:57.648Z,8.20
2019-04-03T00:53:27.660Z,8.30
2019-04-03T00:55:57.849Z,8.30
2019-04-03T00:58:41.177Z,8.40
2019-04-03T01:01:11.711Z,8.50
2019-04-03T01:03:41.525Z,8.50
2019-04-03T01:06:10.918Z,8.50
2019-04-03T01:08:40.168Z,8.50
2019-04-03T01:11:09.422Z,8.50
2019-04-03T01:13:38.665Z,8.40
2019-04-03T01:16:07.941Z,8.50
2019-04-03T01:18:37.321Z,8.40
2019-04-03T01:21:07.190Z,8.40
2019-04-03T01:23:37.857Z,8.40
2019-04-03T01:26:09.242Z,8.40
2019-04-03T01:28:39.827Z,8.40
2019-04-03T01:31:09.443Z,8.40
2019-04-03T01:33:38.844Z,8.30
2019-04-03T01:36:08.354Z,8.30
2019-04-03T01:38:37.698Z,8.30
2019-04-03T01:41:07.174Z,8.30
2019-04-03T01:43:36.491Z,8.30
2019-04-03T01:46:05.812Z,8.30
2019-04-03T01:48:35.109Z,8.40
2019-04-03T01:51:04.360Z,8.40
2019-04-03T01:53:33.636Z,8.30
2019-04-03T01:56:05.139Z,8.20
2019-04-03T01:58:34.683Z,8.10
2019-04-03T02:01:06.306Z,8.10
2019-04-03T02:03:36.019Z,7.90
2019-04-03T02:06:05.374Z,7.90
2019-04-03T02:08:34.654Z,7.90
2019-04-03T02:11:04.110Z,7.80
2019-04-03T02:13:33.395Z,7.80
2019-04-03T02:16:02.678Z,7.70
2019-04-03T02:18:31.989Z,7.70
2019-04-03T02:21:01.231Z,7.60
2019-04-03T02:23:31.179Z,7.60
2019-04-03T02:26:02.291Z,7.60
2019-04-03T02:28:34.134Z,7.60
2019-04-03T02:31:02.729Z,7.70
2019-04-03T02:33:32.019Z,7.70
2019-04-03T02:36:01.284Z,7.70
2019-04-03T02:38:30.546Z,7.60
2019-04-03T02:41:03.493Z,7.70
2019-04-03T02:43:30.885Z,7.70
2019-04-03T02:46:00.304Z,7.60
2019-04-03T02:48:29.649Z,7.60
2019-04-03T02:50:59.519Z,7.50
2019-04-03T02:53:30.561Z,7.50
2019-04-03T02:55:59.889Z,7.50
2019-04-03T02:58:29.228Z,7.40
2019-04-03T03:00:58.538Z,7.40
2019-04-03T03:03:27.831Z,7.40
2019-04-03T03:05:59.270Z,7.50
2019-04-03T03:08:28.274Z,7.50
2019-04-03T03:10:58.690Z,7.40
2019-04-03T03:13:29.253Z,7.30
2019-04-03T03:15:58.982Z,7.30
2019-04-03T03:18:29.078Z,7.20
2019-04-03T03:20:58.730Z,7.10
2019-04-03T03:23:28.212Z,7.20
2019-04-03T03:25:58.065Z,7.10
2019-04-03T03:28:27.914Z,7.10
2019-04-03T03:31:03.037Z,7.10
2019-04-03T03:33:35.506Z,7.10
2019-04-03T03:36:01.438Z,7.10
2019-04-03T03:38:31.012Z,7.10
2019-04-03T03:41:00.274Z,7.00
2019-04-03T03:43:29.884Z,7.00
2019-04-03T03:46:00.049Z,7.00
2019-04-03T03:48:29.918Z,7.00
2019-04-03T03:51:00.950Z,7.00
2019-04-03T03:53:31.735Z,7.00
2019-04-03T03:56:02.157Z,6.90
2019-04-03T03:58:31.732Z,6.90
2019-04-03T04:01:01.145Z,7.00
2019-04-03T04:03:30.858Z,7.00
2019-04-03T04:06:00.113Z,6.90
2019-04-03T04:08:31.119Z,6.90
2019-04-03T04:11:01.048Z,6.90
2019-04-03T04:13:30.347Z,6.80
2019-04-03T04:16:02.791Z,6.80
2019-04-03T04:18:31.294Z,6.70
2019-04-03T04:21:00.882Z,6.70
2019-04-03T04:23:30.553Z,6.70
2019-04-03T04:26:01.551Z,6.80
2019-04-03T04:28:31.522Z,6.70
2019-04-03T04:31:01.078Z,6.80
2019-04-03T04:33:30.566Z,6.80
2019-04-03T04:36:00.158Z,6.80
2019-04-03T04:38:29.450Z,6.70
2019-04-03T04:41:01.297Z,6.70
2019-04-03T04:43:30.006Z,6.60
2019-04-03T04:45:59.385Z,6.60
2019-04-03T04:48:28.771Z,6.70
2019-04-03T04:50:58.258Z,6.70
2019-04-03T04:53:29.394Z,6.70
2019-04-03T04:55:58.623Z,6.70
2019-04-03T04:58:28.194Z,6.90
2019-04-03T05:00:57.767Z,6.90
2019-04-03T05:03:27.276Z,7.00
2019-04-03T05:05:58.315Z,7.00
2019-04-03T05:08:27.647Z,7.00
2019-04-03T05:10:57.226Z,7.10
2019-04-03T05:13:26.860Z,7.00
2019-04-03T05:15:56.263Z,7.10
2019-04-03T05:18:28.588Z,7.10
2019-04-03T05:20:56.661Z,7.20
2019-04-03T05:23:26.196Z,7.10
2019-04-03T05:25:55.667Z,7.10
2019-04-03T05:28:25.000Z,7.10
2019-04-03T05:30:54.423Z,7.20
2019-04-03T05:33:23.673Z,7.20
2019-04-03T05:35:52.954Z,7.30
2019-04-03T05:38:22.626Z,7.40
2019-04-03T05:40:51.975Z,7.40
2019-04-03T05:43:21.438Z,7.50
2019-04-03T05:45:50.755Z,7.60
2019-04-03T05:48:20.017Z,7.60
2019-04-03T05:50:49.556Z,7.70
2019-04-03T05:53:19.089Z,7.90
2019-04-03T05:55:49.289Z,7.90
2019-04-03T05:58:18.650Z,7.90
2019-04-03T06:00:48.099Z,8.00
2019-04-03T06:03:17.481Z,8.10
2019-04-03T06:05:46.757Z,8.10
2019-04-03T06:08:16.115Z,8.20
2019-04-03T06:10:45.458Z,8.30
2019-04-03T06:13:16.796Z,8.40
2019-04-03T06:15:45.857Z,8.60
2019-04-03T06:18:17.410Z,8.70
2019-04-03T06:20:46.382Z,8.90
2019-04-03T06:23:15.653Z,9.00
2019-04-03T06:25:44.927Z,9.20
2019-04-03T06:28:14.450Z,9.20
2019-04-03T06:30:44.041Z,9.40
2019-04-03T06:33:13.349Z,9.50
2019-04-03T06:35:44.670Z,9.60
2019-04-03T06:38:13.586Z,9.70
2019-04-03T06:40:42.909Z,9.70
2019-04-03T06:43:12.155Z,9.70
2019-04-03T06:45:43.495Z,9.80
2019-04-03T06:48:12.463Z,9.80
2019-04-03T06:50:41.711Z,10.00
2019-04-03T06:53:11.013Z,10.20
2019-04-03T06:55:41.615Z,10.30
2019-04-03T06:58:11.641Z,10.30
2019-04-03T07:00:41.670Z,10.50
2019-04-03T07:03:11.093Z,10.60
2019-04-03T07:05:41.817Z,10.70
2019-04-03T07:08:11.601Z,10.80
2019-04-03T07:10:41.006Z,10.90
2019-04-03T07:13:10.513Z,11.00
2019-04-03T07:15:39.804Z,11.10
2019-04-03T07:18:09.101Z,11.20
2019-04-03T07:20:38.373Z,11.30
2019-04-03T07:23:07.618Z,11.50
2019-04-03T07:25:37.751Z,11.60
2019-04-03T07:28:08.868Z,11.80
2019-04-03T07:30:37.973Z,12.00
2019-04-03T07:33:07.448Z,12.20
2019-04-03T07:35:39.255Z,12.40
2019-04-03T07:38:08.014Z,12.60
2019-04-03T07:40:37.608Z,12.80
2019-04-03T07:43:07.177Z,13.00
2019-04-03T07:45:36.553Z,13.10
2019-04-03T07:48:06.970Z,13.30
2019-04-03T07:50:37.176Z,13.50
2019-04-03T07:53:06.817Z,13.70
2019-04-03T07:55:36.141Z,13.90
2019-04-03T07:58:05.631Z,14.20
2019-04-03T08:00:36.304Z,14.50
2019-04-03T08:03:06.111Z,14.80
2019-04-03T08:05:35.666Z,15.10
2019-04-03T08:08:05.278Z,15.20
2019-04-03T08:10:37.228Z,15.50
2019-04-03T08:13:06.673Z,15.80
2019-04-03T08:15:36.899Z,15.70
2019-04-03T08:18:06.181Z,15.50
2019-04-03T08:20:35.577Z,15.60
2019-04-03T08:23:05.641Z,15.70
2019-04-03T08:25:35.485Z,15.80
2019-04-03T08:28:05.260Z,16.00
2019-04-03T08:30:34.616Z,16.20
2019-04-03T08:33:15.123Z,16.30
2019-04-03T08:35:35.925Z,16.40
2019-04-03T08:38:05.861Z,16.50
2019-04-03T08:40:35.564Z,16.60
2019-04-03T08:43:05.065Z,16.70
2019-04-03T08:45:37.793Z,16.80
2019-04-03T08:48:06.373Z,16.80
2019-04-03T08:50:36.613Z,16.80
2019-04-03T08:53:08.388Z,16.70
2019-04-03T08:55:37.327Z,16.90
2019-04-03T08:58:06.742Z,17.00
2019-04-03T09:00:36.079Z,17.20
2019-04-03T09:03:05.514Z,17.50
2019-04-03T09:05:35.213Z,17.90
2019-04-03T09:08:04.696Z,20.30
2019-04-03T09:10:36.700Z,23.80
2019-04-03T09:13:16.174Z,26.40
2019-04-03T09:15:36.167Z,28.40
2019-04-03T09:18:06.764Z,29.40
2019-04-03T09:20:36.822Z,30.50
2019-04-03T09:23:06.498Z,31.30
2019-04-03T09:25:35.971Z,31.80
2019-04-03T09:28:05.242Z,32.20
2019-04-03T09:30:34.745Z,31.60
2019-04-03T09:33:04.099Z,31.30
2019-04-03T09:35:33.357Z,30.70
2019-04-03T09:38:02.625Z,30.50
2019-04-03T09:40:32.086Z,28.80
2019-04-03T09:43:01.427Z,29.20
2019-04-03T09:45:30.791Z,29.30
2019-04-03T09:48:00.321Z,29.10
2019-04-03T09:50:29.716Z,29.00
2019-04-03T09:53:01.800Z,28.40
2019-04-03T09:55:33.476Z,28.30
2019-04-03T09:58:03.269Z,28.30
2019-04-03T10:00:32.125Z,27.90
2019-04-03T10:03:01.827Z,27.50
2019-04-03T10:05:31.213Z,27.20
2019-04-03T10:08:00.586Z,25.60
2019-04-03T10:10:29.931Z,25.00
2019-04-03T10:12:59.266Z,24.80
2019-04-03T10:15:29.058Z,24.60
2019-04-03T10:17:59.792Z,25.00
2019-04-03T10:20:29.291Z,25.60
2019-04-03T10:22:58.682Z,26.30
2019-04-03T10:25:27.980Z,26.70
2019-04-03T10:27:57.285Z,27.50
2019-04-03T10:30:27.096Z,28.90
2019-04-03T10:32:58.845Z,29.70
2019-04-03T10:35:27.834Z,29.80
2019-04-03T10:37:57.147Z,29.10
2019-04-03T10:40:26.429Z,28.60
2019-04-03T10:42:55.811Z,27.70
2019-04-03T10:45:25.106Z,27.10
2019-04-03T10:47:56.622Z,26.80
2019-04-03T10:50:25.357Z,25.80
2019-04-03T10:52:54.625Z,24.00
2019-04-03T10:55:23.917Z,23.20
2019-04-03T10:57:53.208Z,22.40
2019-04-03T11:00:24.632Z,22.00
2019-04-03T11:02:54.055Z,21.80
2019-04-03T11:05:23.389Z,21.70
2019-04-03T11:07:52.699Z,21.20
2019-04-03T11:10:24.127Z,20.90
2019-04-03T11:12:52.979Z,20.80
2019-04-03T11:15:22.436Z,20.70
2019-04-03T11:17:51.977Z,20.70
2019-04-03T11:20:21.660Z,20.70
2019-04-03T11:23:04.004Z,20.70
2019-04-03T11:25:22.206Z,20.60
2019-04-03T11:27:51.801Z,20.60
2019-04-03T11:30:24.602Z,20.60
2019-04-03T11:32:52.993Z,20.50
2019-04-03T11:35:22.447Z,20.40
2019-04-03T11:37:52.193Z,20.40
2019-04-03T11:40:24.238Z,20.40
2019-04-03T11:42:53.330Z,20.30
2019-04-03T11:45:22.843Z,20.20
2019-04-03T11:47:52.341Z,20.20
2019-04-03T11:50:24.247Z,20.30
2019-04-03T11:52:53.187Z,20.30
2019-04-03T11:55:22.582Z,20.20
2019-04-03T11:57:51.919Z,20.10
2019-04-03T12:00:26.265Z,20.20
2019-04-03T12:02:56.010Z,20.30
2019-04-03T12:05:25.305Z,20.40
2019-04-03T12:07:56.544Z,20.50
2019-04-03T12:10:26.243Z,20.60
2019-04-03T12:12:55.982Z,20.80
2019-04-03T12:15:25.867Z,20.70
2019-04-03T12:17:55.537Z,20.60
2019-04-03T12:20:25.193Z,20.50
2019-04-03T12:22:55.542Z,20.60
2019-04-03T12:25:25.326Z,20.50
2019-04-03T12:27:54.725Z,20.40
2019-04-03T12:30:26.388Z,20.40
2019-04-03T12:32:55.197Z,20.30
2019-04-03T12:35:24.587Z,20.40
2019-04-03T12:37:54.006Z,20.50
2019-04-03T12:40:23.630Z,20.60
2019-04-03T12:42:53.293Z,20.60
2019-04-03T12:45:25.738Z,20.80
2019-04-03T12:47:53.846Z,20.90
2019-04-03T12:50:26.543Z,21.00
2019-04-03T12:52:54.181Z,21.10
2019-04-03T12:55:25.975Z,21.20
2019-04-03T12:57:54.708Z,21.20
2019-04-03T13:00:24.733Z,21.10
2019-04-03T13:02:54.367Z,21.10
2019-04-03T13:05:23.725Z,21.00
2019-04-03T13:07:53.383Z,20.80
2019-04-03T13:10:22.806Z,20.70
2019-04-03T13:12:54.708Z,20.50
2019-04-03T13:15:23.088Z,20.40
2019-04-03T13:17:52.502Z,20.30
2019-04-03T13:20:21.775Z,20.20
2019-04-03T13:22:51.134Z,20.00
2019-04-03T13:25:21.510Z,20.00
2019-04-03T13:27:51.873Z,20.00
2019-04-03T13:30:21.690Z,20.00
2019-04-03T13:32:58.991Z,19.90
2019-04-03T13:35:21.997Z,19.90
2019-04-03T13:37:51.333Z,19.90
2019-04-03T13:40:21.417Z,19.70
2019-04-03T13:42:50.838Z,19.60
2019-04-03T13:45:20.392Z,19.50
2019-04-03T13:47:50.036Z,19.40
2019-04-03T13:50:24.746Z,19.40
2019-04-03T13:52:54.148Z,19.40
2019-04-03T13:55:23.533Z,19.40
2019-04-03T13:57:52.918Z,19.40
2019-04-03T14:00:23.711Z,19.60
2019-04-03T14:02:56.036Z,19.70
2019-04-03T14:05:27.189Z,19.80
2019-04-03T14:07:55.298Z,19.80
2019-04-03T14:10:27.002Z,19.90
2019-04-03T14:12:55.689Z,19.80
2019-04-03T14:15:25.288Z,19.80
2019-04-03T14:17:58.470Z,19.70
2019-04-03T14:20:25.934Z,19.70
2019-04-03T14:22:55.456Z,19.70
2019-04-03T14:25:28.415Z,19.70
2019-04-03T14:27:56.068Z,19.80
2019-04-03T14:30:25.764Z,19.80
2019-04-03T14:32:55.275Z,19.80
2019-04-03T14:35:45.457Z,19.80
2019-04-03T14:37:58.297Z,19.80
2019-04-03T14:40:26.914Z,19.90
2019-04-03T14:42:58.693Z,19.80
2019-04-03T14:45:27.805Z,19.80
2019-04-03T14:47:57.443Z,19.80
2019-04-03T14:50:26.869Z,19.80
2019-04-03T14:52:56.154Z,19.70
2019-04-03T14:55:26.591Z,19.70
2019-04-03T14:57:56.445Z,19.70
2019-04-03T15:00:30.308Z,19.70
2019-04-03T15:02:57.528Z,19.70
2019-04-03T15:05:27.080Z,19.60
2019-04-03T15:07:56.354Z,19.60
2019-04-03T15:10:25.690Z,19.40
2019-04-03T15:12:55.022Z,19.40
2019-04-03T15:15:24.796Z,19.40
2019-04-03T15:17:55.309Z,19.30
2019-04-03T15:20:24.603Z,19.20
2019-04-03T15:22:53.927Z,19.20
2019-04-03T15:25:23.829Z,19.10
2019-04-03T15:27:53.283Z,19.00
2019-04-03T15:30:24.898Z,18.90
2019-04-03T15:32:54.247Z,18.90
2019-04-03T15:35:23.621Z,18.80
2019-04-03T15:37:52.994Z,18.80
2019-04-03T15:40:24.727Z,18.70
2019-04-03T15:42:54.105Z,18.70
2019-04-03T15:45:25.299Z,18.70
2019-04-03T15:47:57.131Z,18.60
2019-04-03T15:50:28.396Z,18.60
2019-04-03T15:52:57.218Z,18.70
2019-04-03T15:55:26.500Z,18.60
2019-04-03T15:57:55.759Z,18.60
2019-04-03T16:00:27.492Z,18.60
2019-04-03T16:02:56.980Z,18.50
2019-04-03T16:05:26.255Z,18.50
2019-04-03T16:07:55.622Z,18.50
2019-04-03T16:10:24.910Z,18.40
2019-04-03T16:12:54.266Z,18.30
2019-04-03T16:15:24.183Z,18.30
2019-04-03T16:17:54.379Z,18.20
2019-04-03T16:20:23.814Z,18.20
2019-04-03T16:22:53.099Z,18.10
2019-04-03T16:25:22.370Z,18.10
2019-04-03T16:27:51.704Z,18.10
2019-04-03T16:30:21.818Z,18.00
2019-04-03T16:32:51.247Z,18.00
2019-04-03T16:35:20.529Z,18.00
2019-04-03T16:37:51.316Z,17.90
2019-04-03T16:40:20.842Z,17.90
2019-04-03T16:42:52.991Z,17.80
2019-04-03T16:45:21.223Z,17.80
2019-04-03T16:47:50.590Z,17.70
2019-04-03T16:50:20.029Z,17.70
2019-04-03T16:52:49.458Z,17.70
2019-04-03T16:55:19.297Z,17.70
2019-04-03T16:57:48.858Z,17.70
2019-04-03T17:00:19.364Z,17.70
2019-04-03T17:02:48.673Z,17.60
2019-04-03T17:05:17.949Z,17.60
2019-04-03T17:07:47.371Z,17.50
2019-04-03T17:10:16.897Z,17.50
2019-04-03T17:12:47.930Z,17.40
2019-04-03T17:15:17.225Z,17.30
2019-04-03T17:17:47.025Z,17.30
2019-04-03T17:20:17.251Z,17.20
2019-04-03T17:22:46.961Z,17.10
2019-04-03T17:25:16.637Z,17.10
2019-04-03T17:27:55.036Z,17.00
2019-04-03T17:30:18.387Z,17.00
2019-04-03T17:32:48.334Z,16.90
2019-04-03T17:35:17.631Z,16.90
2019-04-03T17:37:47.104Z,16.80
2019-04-03T17:40:16.582Z,16.80
2019-04-03T17:42:45.878Z,16.70
2019-04-03T17:45:16.277Z,16.70
2019-04-03T17:47:45.825Z,16.60
2019-04-03T17:50:15.437Z,16.60
2019-04-03T17:52:44.777Z,16.50
2019-04-03T17:55:14.270Z,16.50
2019-04-03T17:57:45.343Z,16.40
2019-04-03T18:00:15.697Z,16.40
2019-04-03T18:02:45.141Z,16.30
2019-04-03T18:05:14.733Z,16.30
2019-04-03T18:07:46.820Z,16.20
2019-04-03T18:10:16.316Z,16.20
2019-04-03T18:12:46.109Z,16.10
2019-04-03T18:15:16.204Z,16.10
2019-04-03T18:17:45.579Z,16.00
2019-04-03T18:20:15.337Z,16.10
2019-04-03T18:22:44.709Z,16.00
2019-04-03T18:25:14.303Z,16.10
2019-04-03T18:27:43.704Z,16.10
2019-04-03T18:30:13.670Z,16.10
2019-04-03T18:32:45.521Z,16.10
2019-04-03T18:35:14.713Z,16.00
2019-04-03T18:37:44.021Z,16.10
2019-04-03T18:40:15.180Z,16.00
2019-04-03T18:42:44.658Z,16.00
2019-04-03T18:45:24.667Z,16.00
2019-04-03T18:47:46.778Z,15.90
2019-04-03T18:50:16.142Z,15.90
2019-04-03T18:52:45.546Z,15.80
2019-04-03T18:55:14.949Z,15.80
2019-04-03T18:57:44.265Z,15.80
2019-04-03T19:00:14.091Z,15.70
2019-04-03T19:02:44.932Z,15.70
2019-04-03T19:05:14.495Z,15.70
2019-04-03T19:07:45.904Z,15.60
2019-04-03T19:10:17.944Z,15.60
2019-04-03T19:12:46.168Z,15.50
2019-04-03T19:15:15.555Z,15.50
2019-04-03T19:17:44.854Z,15.50
2019-04-03T19:20:14.137Z,15.40
2019-04-03T19:22:43.491Z,15.40
2019-04-03T19:25:12.860Z,15.30
2019-04-03T19:27:42.197Z,15.30
2019-04-03T19:30:11.846Z,15.30
2019-04-03T19:32:43.270Z,15.30
2019-04-03T19:35:12.232Z,15.20
2019-04-03T19:37:44.704Z,15.10
2019-04-03T19:40:12.654Z,15.10
2019-04-03T19:42:43.741Z,15.10
2019-04-03T19:45:13.244Z,15.00
2019-04-03T19:47:42.647Z,15.00
2019-04-03T19:50:12.422Z,15.00
2019-04-03T19:52:42.325Z,14.90
2019-04-03T19:55:11.942Z,14.90
2019-04-03T19:57:41.273Z,14.90
2019-04-03T20:00:11.417Z,14.90
2019-04-03T20:02:43.031Z,14.80
2019-04-03T20:05:12.315Z,14.80
2019-04-03T20:07:41.586Z,14.80
2019-04-03T20:10:11.502Z,14.70
2019-04-03T20:12:40.844Z,14.70
2019-04-03T20:15:10.577Z,14.70
2019-04-03T20:17:39.831Z,14.70
2019-04-03T20:20:09.414Z,14.70
2019-04-03T20:22:42.064Z,14.70
2019-04-03T20:25:09.794Z,14.70
2019-04-03T20:27:39.117Z,14.70
2019-04-03T20:30:09.282Z,14.70
2019-04-03T20:32:40.754Z,14.60
2019-04-03T20:35:09.727Z,14.60
2019-04-03T20:37:39.062Z,14.60
2019-04-03T20:40:08.667Z,14.50
2019-04-03T20:42:40.799Z,14.50
2019-04-03T20:45:09.130Z,14.50
2019-04-03T20:47:38.493Z,14.40
2019-04-03T20:50:08.106Z,14.40
2019-04-03T20:52:37.452Z,14.30
2019-04-03T20:55:06.947Z,14.30
2019-04-03T20:57:36.270Z,14.20
2019-04-03T21:00:09.906Z,14.10
2019-04-03T21:02:41.161Z,14.10
2019-04-03T21:05:10.591Z,14.10
2019-04-03T21:07:39.860Z,14.00
2019-04-03T21:10:09.867Z,14.00
2019-04-03T21:12:39.272Z,14.00
2019-04-03T21:15:09.442Z,13.90
2019-04-03T21:17:38.872Z,13.80
2019-04-03T21:20:08.337Z,13.80
2019-04-03T21:22:37.612Z,13.70
2019-04-03T21:25:07.093Z,13.70
2019-04-03T21:27:39.630Z,13.60
2019-04-03T21:30:08.062Z,13.60
2019-04-03T21:32:37.421Z,13.50
2019-04-03T21:35:06.810Z,13.50
2019-04-03T21:37:36.090Z,13.50
2019-04-03T21:40:05.829Z,13.40
2019-04-03T21:42:35.341Z,13.40
2019-04-03T21:45:07.228Z,13.40
2019-04-03T21:47:35.874Z,13.40
2019-04-03T21:50:05.807Z,13.40
2019-04-03T21:52:35.178Z,13.40
2019-04-03T21:55:05.143Z,13.30
2019-04-03T21:57:37.448Z,13.30
2019-04-03T22:00:08.504Z,13.20
2019-04-03T22:02:37.922Z,13.20
2019-04-03T22:05:07.706Z,13.20
2019-04-03T22:07:37.113Z,13.20
2019-04-03T22:10:08.851Z,13.10
2019-04-03T22:12:37.613Z,13.20
2019-04-03T22:15:07.250Z,13.10
2019-04-03T22:17:36.602Z,13.20
2019-04-03T22:20:06.422Z,13.10
2019-04-03T22:22:35.739Z,13.10
2019-04-03T22:25:08.659Z,13.10
2019-04-03T22:27:36.226Z,13.00
2019-04-03T22:30:05.929Z,13.00
2019-04-03T22:32:35.224Z,13.00
2019-04-03T22:35:04.746Z,13.00
2019-04-03T22:37:35.118Z,13.00
2019-04-03T22:40:05.694Z,12.90
2019-04-03T22:42:34.973Z,12.90
2019-04-03T22:45:04.739Z,12.80
2019-04-03T22:47:34.110Z,12.90
2019-04-03T22:50:05.573Z,12.90
2019-04-03T22:52:34.397Z,12.80
2019-04-03T22:55:03.829Z,12.80
2019-04-03T22:57:33.126Z,12.80
2019-04-03T23:00:02.398Z,12.80
2019-04-03T23:02:32.258Z,12.80
2019-04-03T23:05:01.745Z,12.80
2019-04-03T23:07:31.005Z,12.80
2019-04-03T23:10:00.311Z,12.80
2019-04-03T23:12:29.607Z,12.70
2019-04-03T23:14:58.918Z,12.70
2019-04-03T23:17:28.257Z,12.70
2019-04-03T23:19:57.610Z,12.70
2019-04-03T23:22:26.964Z,12.70
2019-04-03T23:24:59.276Z,12.70
2019-04-03T23:27:27.379Z,12.70
2019-04-03T23:29:56.666Z,12.60
2019-04-03T23:32:25.967Z,12.60
2019-04-03T23:34:55.241Z,12.50
2019-04-03T23:37:24.895Z,12.50
2019-04-03T23:39:54.799Z,12.50
2019-04-03T23:42:24.165Z,12.50
2019-04-03T23:44:53.449Z,12.60
2019-04-03T23:47:23.145Z,12.60
2019-04-03T23:49:52.466Z,12.60
2019-04-03T23:52:21.776Z,12.60
2019-04-03T23:54:51.075Z,12.60
2019-04-03T23:57:20.361Z,12.60
2019-04-03T23:59:49.641Z,12.50
